Time;durP1;ratioP1;P1;durP2;ratioP2;P2;SDS_P1;SDS_P2;PMS_P1;PMS_P2;Temp;Humidity;BMP_temperature;BMP_pressure;BME280_temperature;BME280_humidity;BME280_pressure;Samples;Min_cycle;Max_cycle;Signal;HPM_P1;HPM_P2
2022/07/09 00:00:33;;;;;;;3.97;3.10;;;;;24.60;101710.00;;;;2079534;28;20332;-55
2022/07/09 00:01:33;;;;;;;4.53;3.23;;;;;24.60;101713.00;;;;2079370;28;21066;-55
2022/07/09 00:02:34;;;;;;;4.70;3.90;;;;;24.60;101709.00;;;;2079574;28;20590;-55
2022/07/09 00:03:34;;;;;;;3.77;3.47;;;;;24.70;101705.00;;;;2079437;28;20641;-54
2022/07/09 00:04:35;;;;;;;3.50;3.03;;;;;24.70;101697.00;;;;2079554;28;20278;-55
2022/07/09 00:05:35;;;;;;;4.27;3.40;;;;;24.70;101715.00;;;;2078783;28;20208;-54
2022/07/09 00:06:35;;;;;;;4.13;3.13;;;;;24.60;101704.00;;;;2079317;28;20226;-54
2022/07/09 00:07:36;;;;;;;3.37;3.00;;;;;24.60;101704.00;;;;2078693;28;22405;-54
2022/07/09 00:08:36;;;;;;;4.00;3.40;;;;;24.60;101706.00;;;;2079622;28;20286;-55
2022/07/09 00:09:36;;;;;;;3.33;3.03;;;;;24.60;101703.00;;;;2079543;28;20229;-55
2022/07/09 00:10:37;;;;;;;3.63;3.27;;;;;24.60;101701.00;;;;2079487;28;20673;-55
2022/07/09 00:11:37;;;;;;;5.03;3.70;;;;;24.60;101700.00;;;;2079330;28;20252;-56
2022/07/09 00:12:37;;;;;;;4.57;3.20;;;;;24.60;101516.00;;;;2079341;28;20217;-56
2022/07/09 00:13:38;;;;;;;5.10;3.37;;;;;24.60;101692.00;;;;2079617;28;20252;-56
2022/07/09 00:14:38;;;;;;;3.57;3.13;;;;;24.60;101695.00;;;;2079291;28;20580;-56
2022/07/09 00:15:38;;;;;;;3.50;2.90;;;;;24.60;101692.00;;;;2079528;28;20301;-56
2022/07/09 00:16:39;;;;;;;4.37;3.60;;;;;24.60;101691.00;;;;2079412;28;20216;-56
2022/07/09 00:17:39;;;;;;;3.60;2.97;;;;;24.60;101685.00;;;;2078590;28;20228;-56
2022/07/09 00:18:39;;;;;;;3.70;3.00;;;;;24.60;101365.00;;;;2079415;28;20218;-56
2022/07/09 00:19:40;;;;;;;4.00;3.40;;;;;24.60;101689.00;;;;2079223;28;20623;-55
2022/07/09 00:20:40;;;;;;;4.70;3.10;;;;;24.60;101686.00;;;;2079314;28;20671;-55
2022/07/09 00:21:40;;;;;;;3.60;3.30;;;;;24.60;101687.00;;;;2079320;28;20673;-56
2022/07/09 00:22:40;;;;;;;3.40;3.00;;;;;24.60;101693.00;;;;2079338;28;20222;-55
2022/07/09 00:23:41;;;;;;;4.63;2.70;;;;;24.60;101692.00;;;;2079337;28;20216;-56
2022/07/09 00:24:41;;;;;;;3.83;3.30;;;;;24.60;101685.00;;;;2078583;28;20233;-56
2022/07/09 00:25:42;;;;;;;4.27;3.27;;;;;24.60;101690.00;;;;2073181;28;20214;-56
2022/07/09 00:26:42;;;;;;;3.17;2.87;;;;;24.60;101685.00;;;;2071396;28;20268;-56
2022/07/09 00:27:42;;;;;;;4.33;3.00;;;;;24.60;101685.00;;;;2070242;28;20221;-56
2022/07/09 00:28:43;;;;;;;2.93;2.53;;;;;24.60;101691.00;;;;2076525;28;20209;-56
2022/07/09 00:29:43;;;;;;;4.00;2.87;;;;;24.50;101691.00;;;;2079244;28;20241;-56
2022/07/09 00:30:43;;;;;;;3.47;3.13;;;;;24.50;101686.00;;;;2079370;28;20362;-56
2022/07/09 00:31:45;;;;;;;3.30;2.93;;;;;24.50;101683.00;;;;2079053;28;20734;-55
2022/07/09 00:32:46;;;;;;;3.78;2.80;;;;;24.50;101688.00;;;;2079478;28;20216;-56
2022/07/09 00:33:46;;;;;;;3.57;2.80;;;;;24.50;101682.00;;;;2079426;28;20218;-56
2022/07/09 00:34:46;;;;;;;3.00;2.70;;;;;24.50;101683.00;;;;2079172;28;20210;-54
2022/07/09 00:35:47;;;;;;;3.60;2.70;;;;;24.60;101680.00;;;;2075725;28;20229;-55
2022/07/09 00:36:47;;;;;;;3.00;2.70;;;;;24.60;101678.00;;;;2078126;28;20209;-54
2022/07/09 00:37:47;;;;;;;3.50;2.90;;;;;24.60;101681.00;;;;2070258;28;20214;-54
2022/07/09 00:38:48;;;;;;;3.30;2.87;;;;;24.60;101669.00;;;;2071406;28;20226;-54
2022/07/09 00:39:49;;;;;;;3.13;2.70;;;;;24.60;101683.00;;;;2078610;28;21189;-55
2022/07/09 00:40:50;;;;;;;3.38;2.80;;;;;24.60;101679.00;;;;2078257;28;20221;-54
2022/07/09 00:41:50;;;;;;;3.58;2.70;;;;;24.60;101676.00;;;;2072915;28;20305;-55
2022/07/09 00:42:51;;;;;;;4.67;2.83;;;;;24.60;101680.00;;;;2079240;28;20214;-54
2022/07/09 00:43:51;;;;;;;2.77;2.47;;;;;24.60;101682.00;;;;2073948;28;20217;-54
2022/07/09 00:44:51;;;;;;;2.67;2.40;;;;;24.50;101685.00;;;;2078483;28;20729;-54
2022/07/09 00:45:52;;;;;;;3.10;2.50;;;;;24.50;101684.00;;;;2077991;28;20229;-55
2022/07/09 00:46:52;;;;;;;3.80;2.83;;;;;24.60;101683.00;;;;2078892;28;20708;-55
2022/07/09 00:47:52;;;;;;;3.87;2.60;;;;;24.60;101678.00;;;;2077979;28;20210;-56
2022/07/09 00:48:53;;;;;;;3.80;2.77;;;;;24.60;101680.00;;;;2078884;28;20235;-56
2022/07/09 00:49:53;;;;;;;2.50;2.30;;;;;24.50;101678.00;;;;2079305;28;20259;-56
2022/07/09 00:50:53;;;;;;;2.93;2.40;;;;;24.50;101675.00;;;;2076198;28;20210;-57
2022/07/09 00:51:54;;;;;;;2.77;2.57;;;;;24.50;101679.00;;;;2069054;28;21625;-58
2022/07/09 00:52:54;;;;;;;3.03;2.70;;;;;24.60;101682.00;;;;2078234;28;20247;-57
2022/07/09 00:53:54;;;;;;;2.67;2.47;;;;;24.60;101674.00;;;;2078485;28;20202;-57
2022/07/09 00:54:55;;;;;;;3.37;2.40;;;;;24.60;101664.00;;;;2078698;28;20212;-57
2022/07/09 00:55:55;;;;;;;2.50;2.03;;;;;24.50;101683.00;;;;2070496;28;20205;-57
2022/07/09 00:56:55;;;;;;;3.13;2.43;;;;;24.60;101705.00;;;;2062081;28;20211;-54
2022/07/09 00:57:56;;;;;;;2.60;2.40;;;;;24.50;101673.00;;;;2069775;28;20713;-55
2022/07/09 00:58:56;;;;;;;2.70;2.50;;;;;24.50;101637.00;;;;2071524;28;20242;-55
2022/07/09 00:59:57;;;;;;;3.43;2.20;;;;;24.50;101663.00;;;;2063411;28;20337;-54
2022/07/09 01:00:58;;;;;;;4.18;2.55;;;;;24.50;101679.00;;;;2070359;28;20539;-54
2022/07/09 01:01:58;;;;;;;2.50;2.30;;;;;24.50;101666.00;;;;2077879;28;20213;-54
2022/07/09 01:02:59;;;;;;;3.47;2.47;;;;;24.50;101678.00;;;;2065190;28;20219;-54
2022/07/09 01:03:59;;;;;;;3.30;2.40;;;;;24.50;101670.00;;;;2073464;28;20218;-54
2022/07/09 01:04:59;;;;;;;3.30;2.27;;;;;24.50;101673.00;;;;2070292;28;20222;-55
2022/07/09 01:06:00;;;;;;;3.70;2.50;;;;;24.50;101672.00;;;;2062264;28;20215;-55
2022/07/09 01:07:01;;;;;;;3.17;2.60;;;;;24.50;101676.00;;;;2070281;28;20296;-55
2022/07/09 01:08:05;;;;;;;2.57;2.37;;;;;24.50;101674.00;;;;2078012;28;20210;-55
2022/07/09 01:09:05;;;;;;;4.13;2.40;;;;;24.50;101671.00;;;;2079281;28;20468;-55
2022/07/09 01:10:05;;;;;;;3.27;2.53;;;;;24.50;101660.00;;;;2079378;28;20252;-55
2022/07/09 01:11:06;;;;;;;3.53;2.53;;;;;24.50;101673.00;;;;2078576;28;20284;-54
2022/07/09 01:12:07;;;;;;;2.43;2.20;;;;;24.50;101672.00;;;;2072028;28;20198;-54
2022/07/09 01:13:07;;;;;;;2.03;1.90;;;;;24.50;101667.00;;;;2071356;28;20245;-55
2022/07/09 01:14:07;;;;;;;2.50;2.30;;;;;24.50;101664.00;;;;2071457;28;20453;-54
2022/07/09 01:15:08;;;;;;;3.60;2.47;;;;;24.50;101662.00;;;;2071256;28;20234;-54
2022/07/09 01:16:14;;;;;;;2.90;2.60;;;;;23.90;101665.00;;;;2071151;28;20218;-54
2022/07/09 01:17:16;;;;;;;5.05;2.50;;;;;24.50;101669.00;;;;2073101;28;20210;-54
2022/07/09 01:18:17;;;;;;;3.08;2.78;;;;;24.50;101674.00;;;;2079510;28;20210;-54
2022/07/09 01:19:17;;;;;;;2.30;2.10;;;;;24.50;101665.00;;;;2079325;28;20213;-55
2022/07/09 01:20:30;;;;;;;3.47;2.50;;;;;24.50;101669.00;;;;2075877;28;20220;-54
2022/07/09 01:21:30;;;;;;;2.47;2.28;;;;;24.50;101660.00;;;;2075839;28;20677;-55
2022/07/09 01:22:30;;;;;;;2.93;2.40;;;;;24.50;101659.00;;;;2072263;28;20288;-55
2022/07/09 01:23:31;;;;;;;2.73;2.47;;;;;24.50;101661.00;;;;2070696;28;20225;-54
2022/07/09 01:24:31;;;;;;;2.77;2.50;;;;;24.50;101665.00;;;;2069710;28;20222;-54
2022/07/09 01:25:38;;;;;;;2.60;2.23;;;;;24.50;101659.00;;;;2070822;28;20245;-54
2022/07/09 01:26:39;;;;;;;2.72;2.53;;;;;24.50;101655.00;;;;2074241;28;20268;-54
2022/07/09 01:27:39;;;;;;;2.90;2.47;;;;;24.50;101659.00;;;;2067366;28;20260;-54
2022/07/09 01:28:39;;;;;;;3.50;2.30;;;;;24.50;101662.00;;;;2075875;28;20214;-54
2022/07/09 01:29:40;;;;;;;3.20;2.47;;;;;24.50;101666.00;;;;2078588;28;20305;-54
2022/07/09 01:30:41;;;;;;;2.43;2.17;;;;;24.50;101660.00;;;;2075094;28;20214;-54
2022/07/09 01:31:41;;;;;;;3.20;2.30;;;;;24.50;101656.00;;;;2074568;28;20312;-54
2022/07/09 01:32:41;;;;;;;2.97;2.30;;;;;24.50;101655.00;;;;2077352;28;20217;-54
2022/07/09 01:33:42;;;;;;;2.20;2.00;;;;;24.50;101654.00;;;;2078338;28;20213;-54
2022/07/09 01:34:42;;;;;;;2.60;2.40;;;;;24.50;101656.00;;;;2074097;28;20210;-54
2022/07/09 01:35:42;;;;;;;2.43;2.23;;;;;24.50;101663.00;;;;2066440;28;20219;-54
2022/07/09 01:36:44;;;;;;;2.63;2.00;;;;;24.40;101655.00;;;;2070966;28;20221;-54
2022/07/09 01:37:44;;;;;;;2.25;1.92;;;;;24.50;101655.00;;;;2069612;28;20241;-55
2022/07/09 01:38:44;;;;;;;2.53;2.00;;;;;24.50;101658.00;;;;2070660;28;20591;-54
2022/07/09 01:39:51;;;;;;;2.30;2.10;;;;;24.40;101645.00;;;;2070678;28;20586;-55
2022/07/09 01:40:51;;;;;;;2.55;2.00;;;;;24.40;101651.00;;;;2069776;28;20279;-54
2022/07/09 01:41:51;;;;;;;2.73;2.30;;;;;24.40;101656.00;;;;2069542;28;20222;-54
2022/07/09 01:42:52;;;;;;;2.80;1.90;;;;;24.40;101661.00;;;;2070306;28;20218;-54
2022/07/09 01:43:52;;;;;;;2.70;2.50;;;;;24.40;101648.00;;;;2070471;28;20249;-54
2022/07/09 01:44:53;;;;;;;2.50;2.03;;;;;24.40;101649.00;;;;2070495;28;20453;-55
2022/07/09 01:45:53;;;;;;;2.57;2.00;;;;;24.40;101649.00;;;;2070804;28;20300;-54
2022/07/09 01:46:54;;;;;;;3.70;2.43;;;;;24.40;101652.00;;;;2071117;28;20925;-54
2022/07/09 01:47:54;;;;;;;2.40;2.13;;;;;24.40;101637.00;;;;2077863;28;20624;-54
2022/07/09 01:48:54;;;;;;;2.40;2.07;;;;;24.40;101634.00;;;;2078542;28;20221;-55
2022/07/09 01:49:55;;;;;;;2.63;2.27;;;;;24.40;101634.00;;;;2078669;28;20244;-54
2022/07/09 01:50:55;;;;;;;2.40;2.20;;;;;24.40;101639.00;;;;2078825;28;20205;-54
2022/07/09 01:51:56;;;;;;;2.73;2.27;;;;;24.40;101644.00;;;;2078742;28;20685;-54
2022/07/09 01:52:56;;;;;;;2.00;1.90;;;;;24.50;101643.00;;;;2076763;28;20816;-54
2022/07/09 01:53:56;;;;;;;2.40;2.17;;;;;24.40;101639.00;;;;2072000;28;20740;-54
2022/07/09 01:54:57;;;;;;;3.17;2.50;;;;;24.40;101435.00;;;;2074741;28;20678;-54
2022/07/09 01:55:57;;;;;;;2.70;2.30;;;;;24.40;101642.00;;;;2070189;28;20230;-54
2022/07/09 01:56:57;;;;;;;1.93;1.70;;;;;24.40;101634.00;;;;2070293;28;20265;-54
2022/07/09 01:57:58;;;;;;;2.10;1.90;;;;;24.40;101635.00;;;;2072379;28;20221;-54
2022/07/09 01:58:58;;;;;;;2.73;2.50;;;;;24.40;101638.00;;;;2071970;28;20315;-54
2022/07/09 01:59:58;;;;;;;3.13;2.30;;;;;24.40;101630.00;;;;2070465;28;20230;-54
2022/07/09 02:00:59;;;;;;;3.30;2.10;;;;;24.40;101637.00;;;;2070179;28;20298;-55
2022/07/09 02:01:59;;;;;;;2.73;2.50;;;;;24.40;101631.00;;;;2070271;28;20229;-54
2022/07/09 02:02:59;;;;;;;2.40;2.00;;;;;24.40;101633.00;;;;2070401;28;20218;-54
2022/07/09 02:04:00;;;;;;;2.77;2.20;;;;;24.40;101628.00;;;;2070735;28;20214;-54
2022/07/09 02:05:00;;;;;;;2.60;2.40;;;;;24.40;101633.00;;;;2070680;28;20272;-55
2022/07/09 02:06:00;;;;;;;2.23;1.90;;;;;24.40;101632.00;;;;2070584;28;20289;-54
2022/07/09 02:07:01;;;;;;;2.77;2.47;;;;;24.40;101637.00;;;;2077027;28;20214;-55
2022/07/09 02:08:01;;;;;;;2.47;2.27;;;;;24.40;101626.00;;;;2077613;28;20224;-54
2022/07/09 02:09:02;;;;;;;2.30;2.10;;;;;24.40;101628.00;;;;2078569;28;20232;-55
2022/07/09 02:10:03;;;;;;;2.00;1.80;;;;;24.40;101626.00;;;;2078596;28;20217;-54
2022/07/09 02:11:04;;;;;;;2.30;2.10;;;;;23.80;101636.00;;;;2075807;28;20222;-55
2022/07/09 02:12:04;;;;;;;2.40;2.03;;;;;24.40;101625.00;;;;2070621;28;20464;-55
2022/07/09 02:13:05;;;;;;;1.93;1.83;;;;;24.40;101624.00;;;;2070484;28;20678;-55
2022/07/09 02:14:05;;;;;;;2.47;2.27;;;;;24.40;101627.00;;;;2070657;28;20214;-55
2022/07/09 02:15:06;;;;;;;2.73;2.20;;;;;24.40;101626.00;;;;2070544;28;20214;-54
2022/07/09 02:16:08;;;;;;;2.70;1.95;;;;;24.40;101630.00;;;;2070529;28;20686;-54
2022/07/09 02:17:08;;;;;;;2.20;2.00;;;;;24.40;101626.00;;;;2066742;28;20207;-55
2022/07/09 02:18:08;;;;;;;3.30;2.50;;;;;24.40;101628.00;;;;2069577;28;20311;-55
2022/07/09 02:19:09;;;;;;;3.20;2.00;;;;;23.70;101632.00;;;;2070541;28;21268;-54
2022/07/09 02:20:11;;;;;;;3.05;2.25;;;;;24.40;101629.00;;;;2074005;28;20311;-54
2022/07/09 02:21:12;;;;;;;1.95;1.75;;;;;24.40;101627.00;;;;2078370;28;20206;-55
2022/07/09 02:22:12;;;;;;;2.53;1.97;;;;;24.40;101629.00;;;;2078383;28;20288;-54
2022/07/09 02:23:12;;;;;;;2.63;1.93;;;;;24.40;101627.00;;;;2078606;28;20217;-54
2022/07/09 02:24:13;;;;;;;2.83;2.20;;;;;24.40;101636.00;;;;2078450;28;20214;-54
2022/07/09 02:25:13;;;;;;;2.30;1.90;;;;;24.40;101633.00;;;;2074251;28;20555;-55
2022/07/09 02:26:13;;;;;;;2.70;2.10;;;;;24.40;101628.00;;;;2067506;28;20658;-54
2022/07/09 02:27:14;;;;;;;2.67;2.20;;;;;24.40;101629.00;;;;2069572;28;20230;-55
2022/07/09 02:28:14;;;;;;;2.50;2.20;;;;;24.40;101623.00;;;;2070021;28;20666;-54
2022/07/09 02:29:14;;;;;;;2.10;1.90;;;;;24.40;101630.00;;;;2070482;28;20574;-54
2022/07/09 02:30:15;;;;;;;2.03;1.90;;;;;24.40;101621.00;;;;2070319;28;20218;-54
2022/07/09 02:31:15;;;;;;;2.53;2.03;;;;;24.40;101625.00;;;;2070306;28;20268;-55
2022/07/09 02:32:15;;;;;;;2.20;2.00;;;;;24.40;101625.00;;;;2076746;28;20212;-54
2022/07/09 02:33:16;;;;;;;4.10;2.20;;;;;24.40;101625.00;;;;2078298;28;20249;-55
2022/07/09 02:34:16;;;;;;;2.60;2.40;;;;;24.40;101626.00;;;;2077780;28;20216;-55
2022/07/09 02:35:16;;;;;;;2.00;1.80;;;;;24.40;101619.00;;;;2069725;28;20752;-54
2022/07/09 02:36:17;;;;;;;2.47;1.83;;;;;24.40;101625.00;;;;2071134;28;20214;-54
2022/07/09 02:37:17;;;;;;;2.30;2.10;;;;;24.30;101627.00;;;;2069856;28;20214;-55
2022/07/09 02:38:17;;;;;;;2.53;2.33;;;;;24.40;101632.00;;;;2069865;28;20221;-55
2022/07/09 02:39:18;;;;;;;2.03;1.80;;;;;24.40;101626.00;;;;2070445;28;20213;-55
2022/07/09 02:40:18;;;;;;;2.57;2.27;;;;;24.40;101650.00;;;;2070365;28;20698;-56
2022/07/09 02:41:18;;;;;;;3.97;2.27;;;;;24.40;101629.00;;;;2070621;28;20690;-55
2022/07/09 02:42:18;;;;;;;2.43;2.23;;;;;24.40;101626.00;;;;2070032;28;20977;-56
2022/07/09 02:43:19;;;;;;;2.30;2.10;;;;;24.40;101627.00;;;;2070359;28;20693;-56
2022/07/09 02:44:19;;;;;;;2.80;2.07;;;;;24.40;101621.00;;;;2071928;28;20272;-56
2022/07/09 02:45:19;;;;;;;3.20;2.10;;;;;24.40;101622.00;;;;2072067;28;20214;-56
2022/07/09 02:46:20;;;;;;;3.60;2.00;;;;;24.40;101631.00;;;;2071943;28;20268;-55
2022/07/09 02:47:20;;;;;;;2.60;2.20;;;;;24.40;101628.00;;;;2071137;28;20214;-55
2022/07/09 02:48:25;;;;;;;2.13;1.93;;;;;24.40;101622.00;;;;2071997;28;20212;-56
2022/07/09 02:49:25;;;;;;;3.17;2.00;;;;;24.40;101626.00;;;;2071889;28;20287;-55
2022/07/09 02:50:26;;;;;;;2.27;1.93;;;;;24.40;101602.00;;;;2071749;28;20210;-55
2022/07/09 02:51:26;;;;;;;2.27;2.07;;;;;24.40;101619.00;;;;2071981;28;20300;-55
2022/07/09 02:52:26;;;;;;;2.40;2.20;;;;;24.40;101616.00;;;;2071670;28;20229;-55
2022/07/09 02:53:27;;;;;;;2.33;2.00;;;;;24.40;101614.00;;;;2072011;28;20230;-55
2022/07/09 02:54:28;;;;;;;2.00;1.80;;;;;24.40;101618.00;;;;2071631;28;20237;-55
2022/07/09 02:55:28;;;;;;;2.30;2.10;;;;;24.40;101617.00;;;;2071939;28;20313;-55
2022/07/09 02:56:28;;;;;;;3.30;2.40;;;;;24.40;101619.00;;;;2071837;28;20471;-56
2022/07/09 02:57:28;;;;;;;2.50;2.30;;;;;24.30;101622.00;;;;2071033;28;20218;-55
2022/07/09 02:58:30;;;;;;;2.20;2.00;;;;;24.30;101619.00;;;;2071895;28;20248;-55
2022/07/09 02:59:30;;;;;;;2.45;2.25;;;;;24.40;101622.00;;;;2071269;28;20658;-55
2022/07/09 03:00:31;;;;;;;2.10;1.90;;;;;24.40;101620.00;;;;2076892;28;20221;-55
2022/07/09 03:01:31;;;;;;;2.87;2.03;;;;;24.30;101614.00;;;;2073216;28;20228;-55
2022/07/09 03:02:32;;;;;;;3.03;2.07;;;;;24.40;101605.00;;;;2071378;28;20353;-55
2022/07/09 03:03:35;;;;;;;2.60;2.30;;;;;24.40;101608.00;;;;2072001;28;20214;-55
2022/07/09 03:04:35;;;;;;;2.22;2.03;;;;;24.40;101613.00;;;;2071692;28;20297;-55
2022/07/09 03:05:36;;;;;;;3.47;2.40;;;;;24.40;101608.00;;;;2070962;28;20225;-55
2022/07/09 03:06:36;;;;;;;2.00;1.90;;;;;24.40;101616.00;;;;2071910;28;20284;-55
2022/07/09 03:07:37;;;;;;;2.50;2.30;;;;;24.40;101612.00;;;;2071100;28;20218;-55
2022/07/09 03:08:38;;;;;;;2.50;2.10;;;;;24.30;101603.00;;;;2072008;28;20222;-55
2022/07/09 03:09:38;;;;;;;3.00;2.38;;;;;24.30;101607.00;;;;2071660;28;20214;-56
2022/07/09 03:10:39;;;;;;;2.10;1.93;;;;;24.40;101642.00;;;;2071686;28;20234;-56
2022/07/09 03:11:39;;;;;;;2.20;2.00;;;;;24.40;101608.00;;;;2071827;28;20700;-56
2022/07/09 03:12:40;;;;;;;2.20;2.00;;;;;24.30;101606.00;;;;2071773;28;20713;-55
2022/07/09 03:13:40;;;;;;;3.57;2.07;;;;;24.30;101612.00;;;;2071664;28;20717;-55
2022/07/09 03:14:40;;;;;;;2.43;2.23;;;;;24.30;101607.00;;;;2071723;28;20218;-55
2022/07/09 03:15:41;;;;;;;3.80;1.97;;;;;24.30;101605.00;;;;2076513;28;21040;-55
2022/07/09 03:16:41;;;;;;;3.00;2.40;;;;;24.30;101602.00;;;;2079867;28;20261;-55
2022/07/09 03:17:42;;;;;;;2.70;2.10;;;;;24.30;101606.00;;;;2079076;28;20213;-55
2022/07/09 03:18:42;;;;;;;2.17;1.97;;;;;24.30;101596.00;;;;2079959;28;20214;-55
2022/07/09 03:19:43;;;;;;;3.60;1.80;;;;;24.30;101601.00;;;;2078385;28;20209;-55
2022/07/09 03:20:43;;;;;;;5.00;2.20;;;;;24.30;101608.00;;;;2079903;28;20205;-55
2022/07/09 03:21:43;;;;;;;2.27;2.10;;;;;24.40;101606.00;;;;2079793;28;20221;-55
2022/07/09 03:22:44;;;;;;;1.90;1.70;;;;;24.40;101603.00;;;;2076021;28;20242;-55
2022/07/09 03:23:44;;;;;;;2.33;1.93;;;;;24.40;101605.00;;;;2072180;28;20275;-55
2022/07/09 03:24:44;;;;;;;2.67;2.10;;;;;24.30;101612.00;;;;2078335;28;20210;-55
2022/07/09 03:25:45;;;;;;;2.70;2.10;;;;;24.30;101612.00;;;;2074121;28;20254;-55
2022/07/09 03:26:45;;;;;;;3.03;2.60;;;;;24.30;101607.00;;;;2079879;28;20213;-55
2022/07/09 03:27:45;;;;;;;2.43;2.23;;;;;24.30;101607.00;;;;2079068;28;20391;-55
2022/07/09 03:28:46;;;;;;;2.73;2.13;;;;;24.30;101606.00;;;;2079721;28;20252;-55
2022/07/09 03:29:46;;;;;;;4.23;2.10;;;;;24.30;101604.00;;;;2079162;28;20691;-55
2022/07/09 03:30:47;;;;;;;2.10;2.00;;;;;24.30;101605.00;;;;2078916;28;20263;-55
2022/07/09 03:31:47;;;;;;;3.30;2.23;;;;;24.30;101606.00;;;;2075233;28;20236;-55
2022/07/09 03:32:47;;;;;;;2.17;1.93;;;;;24.30;101608.00;;;;2070901;28;20542;-55
2022/07/09 03:33:49;;;;;;;2.33;2.13;;;;;24.30;101606.00;;;;2071724;28;20224;-55
2022/07/09 03:34:49;;;;;;;2.60;1.90;;;;;24.40;101601.00;;;;2071621;28;20218;-55
2022/07/09 03:35:50;;;;;;;2.40;2.20;;;;;24.40;101609.00;;;;2070191;28;21657;-59
2022/07/09 03:36:50;;;;;;;2.50;2.30;;;;;24.30;101598.00;;;;2071743;28;20218;-58
2022/07/09 03:37:50;;;;;;;2.07;1.97;;;;;24.40;101602.00;;;;2070795;28;20237;-57
2022/07/09 03:38:51;;;;;;;2.37;2.17;;;;;24.40;101601.00;;;;2071579;28;20272;-56
2022/07/09 03:39:51;;;;;;;2.53;2.33;;;;;24.40;101606.00;;;;2078124;28;20213;-56
2022/07/09 03:40:52;;;;;;;2.33;2.10;;;;;24.40;101602.00;;;;2077349;28;20213;-55
2022/07/09 03:41:52;;;;;;;3.03;2.30;;;;;24.40;101593.00;;;;2078123;28;20209;-56
2022/07/09 03:42:53;;;;;;;2.27;2.03;;;;;24.40;101597.00;;;;2071122;28;20224;-55
2022/07/09 03:43:53;;;;;;;3.83;2.23;;;;;24.30;101605.00;;;;2071815;28;20210;-55
2022/07/09 03:44:53;;;;;;;2.60;2.40;;;;;24.40;101603.00;;;;2071519;28;20298;-55
2022/07/09 03:45:54;;;;;;;2.10;1.90;;;;;24.40;101605.00;;;;2071527;28;20241;-55
2022/07/09 03:46:55;;;;;;;2.23;1.97;;;;;24.40;101596.00;;;;2071549;28;20214;-56
2022/07/09 03:47:55;;;;;;;2.97;2.10;;;;;24.30;101598.00;;;;2070710;28;20453;-56
2022/07/09 03:48:55;;;;;;;2.20;2.00;;;;;24.30;101602.00;;;;2071481;28;20214;-54
2022/07/09 03:49:55;;;;;;;3.43;2.63;;;;;24.40;101612.00;;;;2072738;28;20698;-55
2022/07/09 03:50:56;;;;;;;3.20;2.63;;;;;24.30;101604.00;;;;2079681;28;20711;-55
2022/07/09 03:51:57;;;;;;;2.13;2.00;;;;;24.30;101600.00;;;;2076607;28;20686;-55
2022/07/09 03:52:57;;;;;;;2.40;2.20;;;;;24.30;101599.00;;;;2071275;28;20210;-56
2022/07/09 03:53:58;;;;;;;2.87;2.40;;;;;24.30;101595.00;;;;2071276;28;20218;-56
2022/07/09 03:54:58;;;;;;;2.90;2.10;;;;;24.30;101600.00;;;;2073160;28;20237;-56
2022/07/09 03:55:58;;;;;;;3.03;1.80;;;;;24.30;101670.00;;;;2079684;28;20213;-55
2022/07/09 03:56:59;;;;;;;2.87;2.50;;;;;24.30;101605.00;;;;2079418;28;20216;-56
2022/07/09 03:57:59;;;;;;;2.30;1.83;;;;;24.30;101620.00;;;;2078618;28;20725;-56
2022/07/09 03:58:59;;;;;;;2.33;2.10;;;;;24.30;101604.00;;;;2079602;28;20701;-56
2022/07/09 04:00:00;;;;;;;2.70;2.17;;;;;24.30;101598.00;;;;2079612;28;20248;-56
2022/07/09 04:01:00;;;;;;;2.80;2.47;;;;;24.30;101609.00;;;;2077742;28;20352;-56
2022/07/09 04:02:01;;;;;;;2.20;2.00;;;;;24.40;101596.00;;;;2079291;28;20820;-57
2022/07/09 04:03:01;;;;;;;2.90;2.40;;;;;24.40;101598.00;;;;2079313;28;20213;-56
2022/07/09 04:04:01;;;;;;;3.60;2.23;;;;;24.30;101598.00;;;;2079833;28;20209;-56
2022/07/09 04:05:02;;;;;;;2.97;1.97;;;;;24.30;101594.00;;;;2079430;28;20202;-56
2022/07/09 04:06:03;;;;;;;2.80;2.13;;;;;24.30;101598.00;;;;2078691;28;20206;-55
2022/07/09 04:07:03;;;;;;;2.33;2.13;;;;;24.40;101587.00;;;;2078887;28;20213;-55
2022/07/09 04:08:04;;;;;;;2.47;2.17;;;;;24.40;101595.00;;;;2072030;28;20749;-56
2022/07/09 04:09:04;;;;;;;2.60;2.40;;;;;24.40;101591.00;;;;2070639;28;20214;-55
2022/07/09 04:10:05;;;;;;;2.10;1.90;;;;;24.40;101590.00;;;;2071222;28;20218;-55
2022/07/09 04:11:05;;;;;;;2.30;1.97;;;;;24.40;101591.00;;;;2071215;28;20214;-55
2022/07/09 04:12:06;;;;;;;2.13;1.93;;;;;24.40;101590.00;;;;2071269;28;20473;-55
2022/07/09 04:13:06;;;;;;;3.77;2.00;;;;;24.30;101598.00;;;;2074219;28;20206;-55
2022/07/09 04:14:07;;;;;;;2.50;2.10;;;;;24.40;101592.00;;;;2079370;28;20596;-55
2022/07/09 04:15:07;;;;;;;2.20;2.00;;;;;24.40;101584.00;;;;2079367;28;20213;-55
2022/07/09 04:16:08;;;;;;;2.60;2.40;;;;;24.40;101570.00;;;;2079283;28;20216;-55
2022/07/09 04:17:08;;;;;;;2.43;2.20;;;;;24.40;101594.00;;;;2079234;28;20210;-55
2022/07/09 04:18:08;;;;;;;2.70;2.33;;;;;24.30;101589.00;;;;2078411;28;20220;-55
2022/07/09 04:19:09;;;;;;;2.50;2.30;;;;;24.40;101586.00;;;;2079595;28;20228;-55
2022/07/09 04:20:10;;;;;;;2.53;2.30;;;;;24.40;101584.00;;;;2079528;28;20589;-55
2022/07/09 04:21:10;;;;;;;4.50;2.30;;;;;24.40;101586.00;;;;2076552;28;20594;-55
2022/07/09 04:22:10;;;;;;;2.47;2.27;;;;;24.40;101590.00;;;;2070479;28;21217;-55
2022/07/09 04:23:10;;;;;;;2.20;2.10;;;;;24.40;101591.00;;;;2070131;28;20230;-55
2022/07/09 04:24:11;;;;;;;2.17;1.80;;;;;24.40;101590.00;;;;2071079;28;20225;-55
2022/07/09 04:25:11;;;;;;;2.50;2.20;;;;;24.40;101594.00;;;;2077363;28;20206;-55
2022/07/09 04:26:11;;;;;;;2.30;1.90;;;;;24.30;101594.00;;;;2079442;28;20240;-55
2022/07/09 04:27:12;;;;;;;3.30;2.23;;;;;24.40;101598.00;;;;2079288;28;20202;-54
2022/07/09 04:28:12;;;;;;;2.10;2.00;;;;;24.40;101591.00;;;;2078459;28;20209;-54
2022/07/09 04:29:12;;;;;;;2.60;2.40;;;;;24.40;101592.00;;;;2078997;28;20297;-54
2022/07/09 04:30:13;;;;;;;2.13;1.93;;;;;24.40;101599.00;;;;2071927;28;20207;-54
2022/07/09 04:31:15;;;;;;;2.30;2.10;;;;;24.40;101599.00;;;;2070750;28;20225;-54
2022/07/09 04:32:16;;;;;;;2.80;2.50;;;;;24.40;101597.00;;;;2075397;28;20245;-54
2022/07/09 04:33:16;;;;;;;2.20;2.00;;;;;24.40;101600.00;;;;2078437;28;20571;-54
2022/07/09 04:34:16;;;;;;;2.23;2.00;;;;;24.40;101593.00;;;;2072414;28;20952;-55
2022/07/09 04:35:17;;;;;;;2.73;2.27;;;;;24.40;101595.00;;;;2072208;28;20852;-55
2022/07/09 04:36:17;;;;;;;2.50;2.17;;;;;24.40;101599.00;;;;2078880;28;20837;-55
2022/07/09 04:37:17;;;;;;;2.43;2.20;;;;;24.40;101591.00;;;;2077510;28;20986;-55
2022/07/09 04:38:18;;;;;;;2.20;2.00;;;;;24.40;101594.00;;;;2078763;28;21012;-55
2022/07/09 04:39:18;;;;;;;2.23;2.07;;;;;24.40;101592.00;;;;2078418;28;20267;-56
2022/07/09 04:40:18;;;;;;;2.50;2.20;;;;;24.40;101593.00;;;;2079132;28;20222;-57
2022/07/09 04:41:19;;;;;;;2.10;1.83;;;;;24.40;101594.00;;;;2078294;28;20260;-56
2022/07/09 04:42:20;;;;;;;2.60;2.40;;;;;24.40;101589.00;;;;2079135;28;20219;-56
2022/07/09 04:43:20;;;;;;;3.00;2.20;;;;;24.40;101600.00;;;;2079048;28;20213;-56
2022/07/09 04:44:21;;;;;;;2.30;2.10;;;;;24.40;101595.00;;;;2076594;28;20241;-56
2022/07/09 04:45:21;;;;;;;2.20;2.00;;;;;24.30;101588.00;;;;2079272;28;20221;-56
2022/07/09 04:46:22;;;;;;;2.50;2.30;;;;;24.30;101591.00;;;;2077292;28;20629;-55
2022/07/09 04:47:22;;;;;;;2.27;2.07;;;;;24.30;101596.00;;;;2077611;28;20217;-56
2022/07/09 04:48:22;;;;;;;2.10;1.90;;;;;24.30;101599.00;;;;2075401;28;20904;-56
2022/07/09 04:49:24;;;;;;;2.47;2.10;;;;;24.30;101579.00;;;;2079180;28;20954;-56
2022/07/09 04:50:24;;;;;;;2.35;2.10;;;;;24.30;101596.00;;;;2074103;28;20218;-56
2022/07/09 04:51:25;;;;;;;4.03;2.23;;;;;24.40;101608.00;;;;2076925;28;20256;-56
2022/07/09 04:52:26;;;;;;;2.63;2.27;;;;;24.30;101599.00;;;;2077914;28;20213;-56
2022/07/09 04:53:27;;;;;;;2.22;2.03;;;;;24.30;101605.00;;;;2079025;28;20213;-56
2022/07/09 04:54:27;;;;;;;2.13;2.00;;;;;24.30;101604.00;;;;2078941;28;20213;-56
2022/07/09 04:55:27;;;;;;;3.97;2.57;;;;;24.40;101609.00;;;;2079192;28;20213;-55
2022/07/09 04:56:28;;;;;;;3.80;2.33;;;;;24.40;101603.00;;;;2070504;28;20304;-55
2022/07/09 04:57:28;;;;;;;2.80;2.20;;;;;24.30;101607.00;;;;2070064;28;20252;-55
2022/07/09 04:58:28;;;;;;;2.53;2.33;;;;;24.30;101625.00;;;;2069058;28;20220;-55
2022/07/09 04:59:29;;;;;;;2.57;2.37;;;;;24.30;101602.00;;;;2070855;28;20221;-55